createdAt,value
2023-03-16T00:00:14.101Z,2.95
2023-03-16T00:02:43.066Z,6.28
2023-03-16T00:05:13.034Z,3.13
2023-03-16T00:07:43.090Z,3.85
2023-03-16T00:10:13.537Z,3.00
2023-03-16T00:12:43.762Z,4.57
2023-03-16T00:15:14.119Z,4.45
2023-03-16T00:17:42.761Z,4.55
2023-03-16T00:20:13.059Z,4.30
2023-03-16T00:22:41.975Z,3.58
2023-03-16T00:25:11.844Z,3.60
2023-03-16T00:27:40.545Z,4.75
2023-03-16T00:30:10.305Z,4.27
2023-03-16T00:32:40.532Z,4.03
2023-03-16T00:35:09.888Z,3.83
2023-03-16T00:37:39.834Z,4.70
2023-03-16T00:40:11.591Z,2.90
2023-03-16T00:42:40.500Z,3.03
2023-03-16T00:45:10.710Z,5.38
2023-03-16T00:47:42.312Z,4.47
2023-03-16T00:50:11.862Z,4.93
2023-03-16T00:52:40.397Z,3.67
2023-03-16T00:55:09.373Z,4.68
2023-03-16T00:57:37.873Z,4.85
2023-03-16T01:00:12.897Z,3.22
2023-03-16T01:02:45.313Z,2.45
2023-03-16T01:05:14.660Z,3.53
2023-03-16T01:07:45.239Z,3.27
2023-03-16T01:10:14.916Z,3.33
2023-03-16T01:12:45.243Z,5.07
2023-03-16T01:15:14.399Z,2.70
2023-03-16T01:17:44.767Z,4.60
2023-03-16T01:20:19.421Z,4.35
2023-03-16T01:22:48.098Z,2.88
2023-03-16T01:25:18.478Z,3.95
2023-03-16T01:27:47.757Z,2.47
2023-03-16T01:30:16.758Z,3.47
2023-03-16T01:32:46.849Z,3.37
2023-03-16T01:35:15.907Z,4.10
2023-03-16T01:37:44.725Z,4.05
2023-03-16T01:40:16.835Z,3.50
2023-03-16T01:42:50.284Z,2.17
2023-03-16T01:45:54.012Z,2.83
2023-03-16T01:48:27.417Z,2.30
2023-03-16T01:50:58.132Z,2.55
2023-03-16T01:53:27.007Z,3.70
2023-03-16T01:55:56.414Z,3.33
2023-03-16T01:58:26.407Z,3.65
2023-03-16T02:00:55.217Z,3.00
2023-03-16T02:03:26.399Z,2.35
2023-03-16T02:06:08.150Z,2.97
2023-03-16T02:08:39.938Z,3.17
2023-03-16T02:11:09.877Z,7.07
2023-03-16T02:13:46.515Z,2.92
2023-03-16T02:16:19.564Z,2.50
2023-03-16T02:18:52.318Z,3.50
2023-03-16T02:21:27.747Z,2.47
2023-03-16T02:23:57.148Z,2.75
2023-03-16T02:26:35.312Z,2.85
2023-03-16T02:29:15.363Z,3.28
2023-03-16T02:31:48.612Z,2.53
2023-03-16T02:34:19.204Z,3.05
2023-03-16T02:36:50.501Z,3.13
2023-03-16T02:39:22.432Z,3.42
2023-03-16T02:41:51.785Z,3.78
2023-03-16T02:44:25.396Z,3.50
2023-03-16T02:46:59.766Z,3.35
2023-03-16T02:49:33.996Z,3.35
2023-03-16T02:52:02.985Z,2.55
2023-03-16T02:54:33.414Z,2.85
2023-03-16T02:57:01.983Z,3.28
2023-03-16T02:59:32.549Z,3.08
2023-03-16T03:02:02.741Z,4.32
2023-03-16T03:04:33.144Z,3.10
2023-03-16T03:07:05.014Z,2.75
2023-03-16T03:09:44.126Z,3.47
2023-03-16T03:25:08.994Z,2.85
2023-03-16T03:27:37.611Z,4.30
2023-03-16T03:30:34.740Z,4.63
2023-03-16T03:33:05.600Z,2.50
2023-03-16T03:35:34.203Z,3.30
2023-03-16T03:38:03.000Z,2.83
2023-03-16T03:40:33.437Z,3.50
2023-03-16T03:43:04.715Z,2.63
2023-03-16T03:45:36.328Z,3.35
2023-03-16T03:48:05.299Z,2.83
2023-03-16T03:50:35.461Z,2.17
2023-03-16T03:53:23.911Z,3.33
2023-03-16T03:56:22.658Z,3.40
2023-03-16T03:58:51.566Z,3.27
2023-03-16T04:01:31.044Z,4.43
2023-03-16T04:04:00.297Z,2.92
2023-03-16T04:06:29.150Z,3.00
2023-03-16T04:08:58.076Z,2.67
2023-03-16T04:11:30.255Z,3.78
2023-03-16T04:13:58.821Z,2.20
2023-03-16T04:16:28.105Z,3.38
2023-03-16T04:18:58.501Z,5.67
2023-03-16T04:21:27.205Z,4.03
2023-03-16T04:23:55.806Z,2.13
2023-03-16T04:26:34.345Z,2.88
2023-03-16T04:29:04.810Z,3.70
2023-03-16T04:31:35.232Z,3.35
2023-03-16T04:34:04.449Z,3.20
2023-03-16T04:36:34.744Z,2.97
2023-03-16T04:39:04.711Z,4.63
2023-03-16T04:41:34.771Z,2.77
2023-03-16T04:44:17.501Z,4.30
2023-03-16T04:46:46.381Z,3.35
2023-03-16T04:49:15.588Z,2.50
2023-03-16T04:51:46.554Z,3.45
2023-03-16T04:54:19.176Z,2.20
2023-03-16T04:56:49.179Z,2.58
2023-03-16T04:59:31.968Z,2.15
2023-03-16T05:02:17.014Z,2.95
2023-03-16T05:04:45.838Z,2.37
2023-03-16T05:07:14.501Z,2.20
2023-03-16T05:09:49.010Z,3.37
2023-03-16T05:12:19.183Z,2.40
2023-03-16T05:14:49.376Z,3.65
2023-03-16T05:17:27.588Z,2.45
2023-03-16T05:19:56.171Z,3.13
2023-03-16T05:22:25.017Z,2.78
2023-03-16T05:25:21.080Z,2.67
2023-03-16T05:27:55.408Z,1.90
2023-03-16T05:30:42.740Z,2.13
2023-03-16T05:33:14.903Z,1.65
2023-03-16T05:35:44.896Z,3.35
2023-03-16T05:38:15.930Z,3.13
2023-03-16T05:40:46.370Z,3.75
2023-03-16T05:43:26.236Z,1.85
2023-03-16T05:45:56.496Z,3.00
2023-03-16T05:48:25.831Z,4.13
2023-03-16T05:50:57.770Z,2.85
2023-03-16T05:53:31.249Z,2.15
2023-03-16T05:56:07.990Z,2.75
2023-03-16T05:58:42.969Z,2.70
2023-03-16T06:01:13.483Z,2.05
2023-03-16T06:03:44.351Z,2.22
2023-03-16T06:06:19.912Z,2.90
2023-03-16T06:08:58.560Z,1.90
2023-03-16T06:11:28.659Z,1.35
2023-03-16T06:13:59.033Z,2.20
2023-03-16T06:16:27.668Z,1.70
2023-03-16T06:18:59.523Z,1.90
2023-03-16T06:21:29.012Z,1.65
2023-03-16T06:24:03.426Z,2.00
2023-03-16T06:26:31.982Z,1.90
2023-03-16T06:29:01.980Z,2.05
2023-03-16T06:31:31.733Z,4.37
2023-03-16T06:34:00.341Z,2.90
2023-03-16T06:36:29.844Z,2.37
2023-03-16T06:39:05.434Z,2.83
2023-03-16T06:41:42.749Z,1.92
2023-03-16T06:44:13.898Z,2.50
2023-03-16T06:46:52.695Z,2.00
2023-03-16T06:49:21.326Z,2.10
2023-03-16T06:51:50.842Z,2.63
2023-03-16T06:54:20.497Z,2.47
2023-03-16T06:56:50.440Z,2.67
2023-03-16T06:59:20.468Z,2.10
2023-03-16T07:01:50.412Z,3.50
2023-03-16T07:04:19.013Z,2.65
2023-03-16T07:06:47.769Z,3.03
2023-03-16T07:09:16.404Z,3.05
2023-03-16T07:11:44.968Z,2.80
2023-03-16T07:14:13.525Z,3.33
2023-03-16T07:16:44.398Z,2.88
2023-03-16T07:19:13.073Z,2.70
2023-03-16T07:21:42.158Z,2.10
2023-03-16T07:24:16.438Z,1.98
2023-03-16T07:26:46.436Z,2.63
2023-03-16T07:29:23.730Z,2.20
2023-03-16T07:31:54.381Z,2.53
2023-03-16T07:34:27.674Z,2.17
2023-03-16T07:36:59.402Z,1.87
2023-03-16T07:39:31.804Z,3.35
2023-03-16T07:42:07.880Z,2.63
2023-03-16T07:44:54.650Z,4.72
2023-03-16T07:47:26.635Z,2.63
2023-03-16T07:49:59.064Z,3.60
2023-03-16T07:52:28.386Z,2.15
2023-03-16T07:54:57.010Z,2.20
2023-03-16T07:57:25.917Z,2.13
2023-03-16T07:59:54.890Z,2.58
2023-03-16T08:02:24.870Z,2.08
2023-03-16T08:04:54.421Z,1.98
2023-03-16T08:07:23.083Z,2.40
2023-03-16T08:09:57.068Z,1.83
2023-03-16T08:12:32.091Z,1.50
2023-03-16T08:15:01.406Z,1.88
2023-03-16T08:17:34.633Z,2.72
2023-03-16T08:20:10.149Z,3.85
2023-03-16T08:22:38.866Z,1.85
2023-03-16T08:25:10.623Z,2.08
2023-03-16T08:27:41.917Z,1.98
2023-03-16T08:30:12.536Z,2.20
2023-03-16T08:32:46.819Z,2.15
2023-03-16T08:35:16.867Z,2.03
2023-03-16T08:37:47.613Z,1.60
2023-03-16T08:40:18.037Z,1.60
2023-03-16T08:42:50.254Z,1.48
2023-03-16T08:45:20.780Z,1.40
2023-03-16T08:47:51.247Z,2.45
2023-03-16T08:50:20.956Z,1.80
2023-03-16T08:52:51.024Z,3.38
2023-03-16T08:55:19.717Z,2.55
2023-03-16T08:57:48.864Z,1.58
2023-03-16T09:00:18.277Z,2.03
2023-03-16T09:02:47.023Z,2.10
2023-03-16T09:05:18.412Z,3.33
2023-03-16T09:07:49.074Z,1.20
2023-03-16T09:10:19.065Z,1.75
2023-03-16T09:12:47.776Z,2.15
2023-03-16T09:15:16.451Z,1.88
2023-03-16T09:17:45.912Z,2.75
2023-03-16T09:20:34.813Z,2.00
2023-03-16T09:23:03.752Z,1.90
2023-03-16T09:25:32.581Z,3.45
2023-03-16T09:28:01.580Z,1.95
2023-03-16T09:30:30.593Z,2.00
2023-03-16T09:32:59.637Z,1.55
2023-03-16T09:35:30.218Z,1.80
2023-03-16T09:38:06.957Z,2.17
2023-03-16T09:40:38.396Z,3.35
2023-03-16T09:43:26.536Z,2.25
2023-03-16T09:46:06.693Z,2.13
2023-03-16T09:48:38.239Z,1.40
2023-03-16T09:51:14.374Z,1.40
2023-03-16T09:53:44.852Z,3.13
2023-03-16T09:56:21.465Z,1.80
2023-03-16T09:58:50.044Z,1.33
2023-03-16T10:01:27.822Z,2.10
2023-03-16T10:04:09.655Z,1.85
2023-03-16T10:06:48.334Z,2.38
2023-03-16T10:09:26.710Z,1.75
2023-03-16T10:11:58.177Z,1.80
2023-03-16T10:14:31.658Z,2.22
2023-03-16T10:17:04.892Z,1.50
2023-03-16T10:19:40.682Z,1.88
2023-03-16T10:22:19.894Z,2.13
2023-03-16T10:24:59.076Z,1.55
2023-03-16T10:27:31.666Z,1.10
2023-03-16T10:30:02.422Z,1.80
2023-03-16T10:32:35.674Z,3.15
2023-03-16T10:35:12.435Z,1.70
2023-03-16T10:37:43.014Z,1.13
2023-03-16T10:40:13.816Z,1.63
2023-03-16T10:42:42.745Z,1.00
2023-03-16T10:45:25.446Z,1.05
2023-03-16T10:47:54.419Z,1.98
2023-03-16T10:50:27.962Z,1.20
2023-03-16T10:52:59.298Z,1.60
2023-03-16T10:55:32.604Z,1.10
2023-03-16T10:58:01.492Z,1.20
2023-03-16T11:00:31.562Z,1.30
2023-03-16T11:03:02.622Z,1.40
2023-03-16T11:05:33.730Z,1.30
2023-03-16T11:08:10.834Z,2.35
2023-03-16T11:10:54.744Z,0.90
2023-03-16T11:13:27.305Z,2.17
2023-03-16T11:15:58.700Z,1.00
2023-03-16T11:18:31.475Z,1.00
2023-03-16T11:21:04.613Z,1.10
2023-03-16T11:23:38.583Z,1.42
2023-03-16T11:26:14.507Z,1.15
2023-03-16T11:28:48.820Z,1.25
2023-03-16T11:31:24.458Z,1.60
2023-03-16T11:33:55.561Z,1.20
2023-03-16T11:36:39.107Z,1.00
2023-03-16T11:39:18.302Z,0.98
2023-03-16T11:41:58.635Z,1.30
2023-03-16T11:44:34.586Z,0.90
2023-03-16T11:47:17.796Z,1.75
2023-03-16T11:49:58.476Z,1.40
2023-03-16T11:52:42.044Z,1.10
2023-03-16T11:55:25.732Z,1.10
2023-03-16T11:58:04.608Z,1.00
2023-03-16T12:00:41.673Z,0.98
2023-03-16T12:03:40.164Z,0.90
2023-03-16T12:06:24.455Z,1.30
2023-03-16T12:09:14.520Z,1.30
2023-03-16T12:11:53.338Z,10.98
2023-03-16T12:14:26.733Z,11.90
2023-03-16T12:17:01.209Z,3.65
2023-03-16T12:19:40.760Z,1.27
2023-03-16T12:22:18.635Z,1.45
2023-03-16T12:24:48.230Z,2.05
2023-03-16T12:27:24.107Z,1.55
2023-03-16T12:30:05.596Z,1.30
2023-03-16T12:32:46.869Z,1.27
2023-03-16T12:35:29.353Z,7.50
2023-03-16T12:38:11.550Z,1.08
2023-03-16T12:40:49.007Z,3.65
2023-03-16T12:43:33.159Z,0.95
2023-03-16T12:46:06.206Z,1.27
2023-03-16T12:48:39.227Z,1.33
2023-03-16T12:51:07.959Z,1.27
2023-03-16T12:53:45.998Z,1.17
2023-03-16T12:56:16.545Z,1.23
2023-03-16T12:58:49.683Z,1.70
2023-03-16T13:01:21.186Z,2.30
2023-03-16T13:03:52.099Z,2.47
2023-03-16T13:06:24.928Z,1.10
2023-03-16T13:08:59.825Z,1.55
2023-03-16T13:11:29.416Z,2.35
2023-03-16T13:14:12.880Z,1.77
2023-03-16T13:16:42.166Z,1.10
2023-03-16T13:19:29.346Z,1.55
2023-03-16T13:22:08.421Z,1.13
2023-03-16T13:24:40.074Z,1.27
2023-03-16T13:27:22.446Z,1.75
2023-03-16T13:29:57.642Z,1.05
2023-03-16T13:32:29.768Z,1.00
2023-03-16T13:35:00.253Z,1.38
2023-03-16T13:37:30.746Z,1.00
2023-03-16T13:40:00.769Z,1.98
2023-03-16T13:42:35.787Z,0.80
2023-03-16T13:45:15.827Z,1.27
2023-03-16T13:47:45.528Z,1.10
2023-03-16T13:50:19.017Z,1.25
2023-03-16T13:52:57.788Z,0.95
2023-03-16T13:55:33.018Z,1.00
2023-03-16T13:58:02.193Z,1.83
2023-03-16T14:00:35.283Z,0.80
2023-03-16T14:03:16.313Z,1.70
2023-03-16T14:05:46.260Z,0.80
2023-03-16T14:08:18.605Z,0.93
2023-03-16T14:10:48.090Z,1.33
2023-03-16T14:13:33.551Z,1.48
2023-03-16T14:16:07.891Z,1.15
2023-03-16T14:18:38.756Z,1.73
2023-03-16T14:24:18.740Z,1.23
2023-03-16T14:26:51.541Z,1.10
2023-03-16T14:29:26.091Z,1.05
2023-03-16T14:31:56.436Z,0.90
2023-03-16T14:34:30.849Z,1.60
2023-03-16T14:37:11.090Z,1.00
2023-03-16T14:39:40.644Z,1.13
2023-03-16T14:42:21.530Z,1.35
2023-03-16T14:44:50.497Z,1.40
2023-03-16T14:47:25.739Z,1.00
2023-03-16T14:49:54.591Z,1.20
2023-03-16T14:52:28.615Z,1.45
2023-03-16T14:54:57.176Z,1.40
2023-03-16T14:57:27.002Z,1.00
2023-03-16T14:59:56.253Z,0.90
2023-03-16T15:02:29.761Z,1.10
2023-03-16T15:04:59.584Z,1.17
2023-03-16T15:07:30.769Z,0.90
2023-03-16T15:10:06.250Z,1.08
2023-03-16T15:12:35.588Z,1.10
2023-03-16T15:15:18.948Z,1.20
2023-03-16T15:17:52.563Z,1.27
2023-03-16T15:20:24.344Z,1.15
2023-03-16T15:22:54.402Z,2.08
2023-03-16T15:25:29.382Z,1.52
2023-03-16T15:27:58.194Z,1.30
2023-03-16T15:30:30.849Z,1.20
2023-03-16T15:33:02.091Z,1.13
2023-03-16T15:35:30.743Z,1.27
2023-03-16T15:37:59.507Z,1.10
2023-03-16T15:40:31.444Z,1.17
2023-03-16T15:43:00.215Z,1.10
2023-03-16T15:45:29.441Z,1.00
2023-03-16T15:47:59.914Z,0.98
2023-03-16T15:50:30.017Z,1.10
2023-03-16T15:53:04.805Z,0.90
2023-03-16T15:55:36.929Z,1.10
2023-03-16T15:58:07.437Z,1.10
2023-03-16T16:00:41.249Z,1.50
2023-03-16T16:03:13.807Z,1.48
2023-03-16T16:05:43.921Z,1.90
2023-03-16T16:08:12.611Z,1.00
2023-03-16T16:10:44.706Z,1.20
2023-03-16T16:13:18.572Z,1.42
2023-03-16T16:15:48.147Z,1.30
2023-03-16T16:18:27.945Z,1.00
2023-03-16T16:20:59.136Z,1.20
2023-03-16T16:23:28.228Z,1.98
2023-03-16T16:25:59.735Z,1.17
2023-03-16T16:28:31.630Z,1.85
2023-03-16T16:31:02.015Z,2.60
2023-03-16T16:33:34.323Z,1.10
2023-03-16T16:36:17.623Z,1.33
2023-03-16T16:38:46.604Z,1.02
2023-03-16T16:41:26.938Z,1.10
2023-03-16T16:43:56.502Z,1.30
2023-03-16T16:46:27.389Z,1.25
2023-03-16T16:49:00.371Z,1.10
2023-03-16T16:51:31.064Z,1.25
2023-03-16T16:54:01.268Z,1.30
2023-03-16T16:56:31.928Z,1.20
2023-03-16T16:59:03.592Z,2.17
2023-03-16T17:01:34.679Z,1.15
2023-03-16T17:04:04.039Z,1.48
2023-03-16T17:06:35.222Z,2.15
2023-03-16T17:09:04.095Z,1.38
2023-03-16T17:11:33.272Z,2.92
2023-03-16T17:14:04.087Z,1.30
2023-03-16T17:19:50.231Z,1.92
2023-03-16T17:22:28.415Z,1.40
2023-03-16T17:24:59.734Z,1.58
2023-03-16T17:27:31.469Z,3.83
2023-03-16T17:30:02.115Z,2.95
2023-03-16T17:32:32.442Z,1.83
2023-03-16T17:35:01.877Z,1.70
2023-03-16T17:37:32.741Z,3.33
2023-03-16T17:40:01.803Z,3.97
2023-03-16T17:42:31.673Z,3.33
2023-03-16T17:45:00.895Z,6.28
2023-03-16T17:47:33.267Z,3.38
2023-03-16T17:50:02.607Z,2.90
2023-03-16T17:52:33.343Z,3.58
2023-03-16T17:55:02.332Z,4.43
2023-03-16T17:57:33.350Z,6.30
2023-03-16T18:00:03.258Z,3.85
2023-03-16T18:02:44.996Z,3.53
2023-03-16T18:05:20.061Z,4.47
2023-03-16T18:07:50.902Z,5.88
2023-03-16T18:10:21.985Z,3.35
2023-03-16T18:12:58.288Z,3.80
2023-03-16T18:15:33.716Z,5.95
2023-03-16T18:18:03.029Z,2.75
2023-03-16T18:20:38.770Z,3.53
2023-03-16T18:23:18.037Z,2.03
2023-03-16T18:25:47.571Z,2.38
2023-03-16T18:28:17.412Z,3.72
2023-03-16T18:30:47.784Z,4.40
2023-03-16T18:33:25.836Z,11.10
2023-03-16T18:36:01.809Z,8.80
2023-03-16T18:38:34.703Z,11.65
2023-03-16T18:41:15.818Z,8.02
2023-03-16T18:43:44.928Z,9.10
2023-03-16T18:46:26.239Z,13.35
2023-03-16T18:48:59.788Z,14.40
2023-03-16T18:51:29.605Z,13.90
2023-03-16T18:54:02.505Z,14.52
2023-03-16T18:56:31.260Z,11.30
2023-03-16T18:59:00.242Z,11.90
2023-03-16T19:01:32.025Z,7.97
2023-03-16T19:04:03.714Z,8.98
2023-03-16T19:06:37.608Z,11.52
2023-03-16T19:09:15.158Z,12.27
2023-03-16T19:11:45.737Z,24.50
2023-03-16T19:14:18.994Z,19.02
2023-03-16T19:16:56.587Z,21.42
2023-03-16T19:19:28.657Z,17.20
2023-03-16T19:22:03.524Z,15.40
2023-03-16T19:24:38.534Z,21.40
2023-03-16T19:27:13.906Z,18.98
2023-03-16T19:29:45.369Z,13.55
2023-03-16T19:32:20.520Z,13.30
2023-03-16T19:34:49.856Z,12.65
2023-03-16T19:37:26.467Z,12.63
2023-03-16T19:39:56.630Z,13.10
2023-03-16T19:42:31.429Z,10.60
2023-03-16T19:45:00.641Z,15.55
2023-03-16T19:47:31.691Z,13.23
2023-03-16T19:50:01.929Z,9.70
2023-03-16T19:52:32.889Z,12.88
2023-03-16T19:55:03.411Z,11.13
2023-03-16T19:57:35.297Z,15.05
2023-03-16T20:00:08.022Z,12.30
2023-03-16T20:02:39.154Z,13.20
2023-03-16T20:05:09.400Z,12.38
2023-03-16T20:07:38.287Z,9.77
2023-03-16T20:10:10.294Z,12.98
2023-03-16T20:12:42.713Z,9.93
2023-03-16T20:15:16.888Z,10.35
2023-03-16T20:17:46.226Z,10.43
2023-03-16T20:20:25.405Z,10.88
2023-03-16T20:22:57.577Z,7.10
2023-03-16T20:25:31.726Z,8.23
2023-03-16T20:28:03.929Z,7.05
2023-03-16T20:30:33.239Z,6.10
2023-03-16T20:33:02.311Z,9.93
2023-03-16T20:35:32.526Z,7.15
2023-03-16T20:38:01.268Z,9.50
2023-03-16T20:40:31.888Z,8.70
2023-03-16T20:43:00.532Z,8.93
2023-03-16T20:45:30.733Z,8.55
2023-03-16T20:47:59.898Z,3.97
2023-03-16T20:50:30.783Z,4.85
2023-03-16T20:52:59.542Z,6.93
2023-03-16T20:55:30.343Z,4.05
2023-03-16T20:57:59.093Z,7.85
2023-03-16T21:00:33.328Z,9.00
2023-03-16T21:03:05.024Z,6.57
2023-03-16T21:05:33.979Z,7.53
2023-03-16T21:08:02.546Z,4.60
2023-03-16T21:10:32.637Z,8.40
2023-03-16T21:13:01.245Z,5.87
2023-03-16T21:15:32.300Z,5.43
2023-03-16T21:18:03.078Z,5.93
2023-03-16T21:20:33.562Z,9.15
2023-03-16T21:23:02.593Z,4.57
2023-03-16T21:25:35.668Z,6.25
2023-03-16T21:28:05.869Z,4.22
2023-03-16T21:30:38.430Z,5.72
2023-03-16T21:33:18.986Z,5.38
2023-03-16T21:35:47.602Z,5.70
2023-03-16T21:38:18.344Z,5.78
2023-03-16T21:40:49.256Z,3.28
2023-03-16T21:43:18.044Z,5.53
2023-03-16T21:45:47.915Z,4.57
2023-03-16T21:48:18.983Z,5.07
2023-03-16T21:50:48.685Z,4.85
2023-03-16T21:53:23.275Z,4.55
2023-03-16T21:55:54.632Z,5.93
2023-03-16T21:58:23.358Z,6.18
2023-03-16T22:00:53.374Z,4.10
2023-03-16T22:03:29.614Z,5.55
2023-03-16T22:06:02.412Z,7.90
2023-03-16T22:08:33.865Z,5.65
2023-03-16T22:11:04.383Z,7.03
2023-03-16T22:13:33.554Z,6.00
2023-03-16T22:16:02.388Z,4.75
2023-03-16T22:18:34.158Z,3.92
2023-03-16T22:21:04.898Z,6.95
2023-03-16T22:23:35.935Z,4.57
2023-03-16T22:26:08.391Z,6.47
2023-03-16T22:28:37.006Z,5.83
2023-03-16T22:31:06.430Z,5.60
2023-03-16T22:33:38.755Z,7.05
2023-03-16T23:21:15.363Z,4.13
2023-03-16T23:23:50.886Z,4.95
2023-03-16T23:26:27.037Z,6.25
2023-03-16T23:28:57.596Z,3.83
2023-03-16T23:31:27.747Z,3.53
2023-03-16T23:33:56.339Z,5.57
2023-03-16T23:36:27.439Z,6.40
2023-03-16T23:38:56.113Z,6.55
2023-03-16T23:41:26.132Z,4.47
2023-03-16T23:43:55.349Z,4.00
2023-03-16T23:46:26.042Z,4.28
2023-03-16T23:48:57.079Z,5.77
2023-03-16T23:51:29.826Z,5.45
2023-03-16T23:53:59.195Z,6.38
2023-03-16T23:56:28.191Z,4.05
2023-03-16T23:58:57.928Z,7.68
